createdAt,value
2019-04-23T00:01:49.223Z,49.33
2019-04-23T00:04:23.984Z,49.33
2019-04-23T00:09:35.476Z,48.95
2019-04-23T00:12:12.887Z,48.96
2019-04-23T00:14:56.560Z,48.88
2019-04-23T00:17:24.871Z,49.29
2019-04-23T00:19:50.344Z,49.41
2019-04-23T00:22:29.840Z,49.65
2019-04-23T00:25:34.486Z,49.84
2019-04-23T00:27:37.239Z,49.49
2019-04-23T00:30:04.369Z,49.28
2019-04-23T00:35:27.344Z,47.96
2019-04-23T00:37:39.372Z,47.53
2019-04-23T00:40:13.254Z,46.92
2019-04-23T00:42:47.408Z,46.93
2019-04-23T00:45:16.875Z,47.15
2019-04-23T00:47:51.445Z,47.65
2019-04-23T00:50:28.452Z,47.65
2019-04-23T00:52:57.702Z,48.07
2019-04-23T00:55:28.197Z,48.41
2019-04-23T00:58:08.618Z,48.67
2019-04-23T01:05:41.085Z,49.24
2019-04-23T01:13:43.869Z,50.07
2019-04-23T01:16:09.927Z,50.83
2019-04-23T01:18:58.159Z,50.75
2019-04-23T01:21:13.717Z,50.88
2019-04-23T01:24:06.424Z,50.59
2019-04-23T01:27:35.428Z,51.03
2019-04-23T01:29:52.407Z,50.91
2019-04-23T01:32:20.837Z,50.58
2019-04-23T01:35:11.350Z,51.00
2019-04-23T01:37:30.381Z,51.17
2019-04-23T01:40:10.104Z,51.39
2019-04-23T01:45:14.538Z,51.25
2019-04-23T01:50:17.327Z,50.60
2019-04-23T01:52:55.116Z,50.81
2019-04-23T01:55:24.435Z,50.64
2019-04-23T01:57:56.337Z,50.69
2019-04-23T02:00:22.468Z,50.63
2019-04-23T02:02:55.485Z,50.62
2019-04-23T02:05:32.571Z,50.88
2019-04-23T02:07:57.014Z,50.50
2019-04-23T02:13:01.874Z,49.95
2019-04-23T02:15:36.279Z,49.95
2019-04-23T02:18:11.498Z,50.09
2019-04-23T02:20:42.956Z,49.89
2019-04-23T02:23:33.209Z,49.89
2019-04-23T02:26:02.707Z,50.51
2019-04-23T02:28:32.910Z,50.36
2019-04-23T02:33:43.980Z,51.08
2019-04-23T02:36:07.886Z,51.15
2019-04-23T02:41:16.549Z,50.10
2019-04-23T02:43:59.048Z,50.50
2019-04-23T02:46:31.326Z,50.28
2019-04-23T02:48:56.325Z,50.49
2019-04-23T02:51:39.620Z,50.12
2019-04-23T02:54:15.622Z,50.61
2019-04-23T02:56:37.475Z,50.49
2019-04-23T02:59:10.247Z,49.90
2019-04-23T03:01:29.897Z,49.99
2019-04-23T03:09:23.612Z,49.84
2019-04-23T03:11:52.427Z,49.95
2019-04-23T03:19:38.385Z,50.22
2019-04-23T03:22:35.519Z,50.15
2019-04-23T03:25:17.176Z,49.92
2019-04-23T03:27:40.845Z,49.84
2019-04-23T03:30:26.478Z,50.37
2019-04-23T03:35:09.805Z,50.69
2019-04-23T03:38:00.800Z,50.86
2019-04-23T03:40:21.191Z,51.16
2019-04-23T03:43:18.943Z,51.33
2019-04-23T03:45:47.596Z,51.08
2019-04-23T03:48:06.296Z,51.37
2019-04-23T03:50:35.850Z,52.07
2019-04-23T03:53:18.450Z,52.61
2019-04-23T03:55:50.993Z,52.50
2019-04-23T03:58:21.158Z,52.75
2019-04-23T04:03:42.527Z,53.18
2019-04-23T04:06:03.403Z,52.72
2019-04-23T04:08:25.942Z,52.64
2019-04-23T04:11:09.388Z,52.68
2019-04-23T04:13:30.726Z,52.40
2019-04-23T04:16:01.345Z,52.25
2019-04-23T04:23:57.699Z,52.94
2019-04-23T04:26:32.694Z,53.22
2019-04-23T04:28:51.062Z,53.35
2019-04-23T04:31:20.929Z,53.43
2019-04-23T04:34:21.517Z,53.58
2019-04-23T04:41:40.663Z,52.74
2019-04-23T04:44:17.134Z,53.02
2019-04-23T04:46:39.065Z,53.39
2019-04-23T04:51:51.489Z,53.22
2019-04-23T04:56:42.561Z,53.24
2019-04-23T04:59:18.165Z,52.58
2019-04-23T05:04:28.517Z,52.33
2019-04-23T05:12:11.059Z,51.97
2019-04-23T05:14:43.538Z,52.94
2019-04-23T05:17:15.663Z,52.44
2019-04-23T05:24:46.654Z,53.05
2019-04-23T05:27:20.355Z,53.31
2019-04-23T05:30:06.068Z,53.77
2019-04-23T05:32:26.462Z,54.17
2019-04-23T05:34:55.795Z,53.22
2019-04-23T05:37:40.520Z,52.56
2019-04-23T05:40:08.738Z,52.57
2019-04-23T05:42:37.943Z,53.27
2019-04-23T05:45:02.142Z,52.58
2019-04-23T05:47:36.318Z,52.06
2019-04-23T05:50:18.822Z,52.74
2019-04-23T05:52:45.920Z,52.64
2019-04-23T05:55:37.825Z,52.43
2019-04-23T05:57:55.563Z,51.97
2019-04-23T06:05:34.161Z,51.93
2019-04-23T06:08:03.526Z,51.96
2019-04-23T06:10:39.552Z,52.07
2019-04-23T06:13:04.785Z,52.84
2019-04-23T06:15:36.879Z,53.20
2019-04-23T06:18:20.083Z,52.90
2019-04-23T06:20:49.280Z,52.89
2019-04-23T06:23:26.712Z,52.30
2019-04-23T06:28:21.196Z,51.92
2019-04-23T06:31:02.283Z,51.79
2019-04-23T06:33:25.766Z,51.58
2019-04-23T06:36:05.436Z,51.03
2019-04-23T06:41:09.976Z,51.37
2019-04-23T06:43:49.969Z,51.60
2019-04-23T06:46:15.058Z,50.49
2019-04-23T06:48:47.060Z,51.67
2019-04-23T06:51:27.507Z,50.78
2019-04-23T06:53:55.071Z,50.27
2019-04-23T06:56:26.839Z,50.80
2019-04-23T06:59:02.621Z,50.18
2019-04-23T07:01:27.657Z,50.11
2019-04-23T07:04:05.633Z,50.33
2019-04-23T07:06:58.110Z,50.13
2019-04-23T07:14:02.583Z,50.22
2019-04-23T07:16:48.807Z,50.34
2019-04-23T07:21:50.823Z,49.99
2019-04-23T07:24:18.163Z,50.23
2019-04-23T07:26:45.475Z,50.21
2019-04-23T07:29:26.302Z,49.91
2019-04-23T07:34:31.911Z,50.09
2019-04-23T07:40:11.421Z,50.17
2019-04-23T07:42:39.514Z,50.01
2019-04-23T07:45:25.772Z,50.01
2019-04-23T07:48:11.224Z,49.75
2019-04-23T07:50:45.614Z,49.88
2019-04-23T07:55:58.006Z,49.90
2019-04-23T07:58:23.421Z,50.14
2019-04-23T08:00:48.880Z,49.72
2019-04-23T08:05:55.318Z,50.17
2019-04-23T08:08:30.294Z,49.80
2019-04-23T08:11:30.922Z,49.47
2019-04-23T08:13:53.345Z,48.88
2019-04-23T08:16:28.161Z,49.08
2019-04-23T08:21:27.593Z,49.06
2019-04-23T08:27:04.617Z,49.25
2019-04-23T08:29:36.138Z,48.84
2019-04-23T08:32:18.997Z,48.20
2019-04-23T08:37:36.456Z,48.52
2019-04-23T08:39:52.139Z,48.47
2019-04-23T08:48:21.811Z,47.41
2019-04-23T08:50:46.691Z,47.33
2019-04-23T08:58:36.843Z,45.16
2019-04-23T09:01:05.648Z,44.61
2019-04-23T09:03:30.135Z,44.45
2019-04-23T09:06:08.040Z,44.82
2019-04-23T09:08:32.787Z,44.22
2019-04-23T09:11:19.505Z,44.37
2019-04-23T09:16:08.425Z,42.33
2019-04-23T09:18:47.332Z,41.56
2019-04-23T09:24:00.331Z,42.41
2019-04-23T09:26:33.262Z,42.73
2019-04-23T09:29:04.449Z,43.18
2019-04-23T09:34:57.038Z,42.05
2019-04-23T09:37:42.205Z,41.90
2019-04-23T09:40:39.049Z,42.74
2019-04-23T09:43:13.833Z,42.35
2019-04-23T09:46:14.562Z,42.95
2019-04-23T09:48:44.211Z,41.60
2019-04-23T09:51:21.016Z,42.73
2019-04-23T09:53:48.828Z,42.55
2019-04-23T09:56:14.515Z,41.86
2019-04-23T09:58:51.733Z,41.87
2019-04-23T10:03:50.965Z,41.40
2019-04-23T10:06:19.080Z,40.93
2019-04-23T10:08:50.031Z,41.09
2019-04-23T10:11:16.068Z,39.49
2019-04-23T10:13:48.389Z,40.27
2019-04-23T10:16:21.530Z,39.81
2019-04-23T10:18:51.168Z,39.39
2019-04-23T10:21:23.606Z,39.87
2019-04-23T10:23:55.052Z,39.43
2019-04-23T10:26:25.955Z,39.07
2019-04-23T10:29:02.461Z,39.32
2019-04-23T10:31:33.463Z,39.46
2019-04-23T10:34:04.458Z,39.29
2019-04-23T10:36:40.636Z,39.17
2019-04-23T10:39:20.776Z,39.49
2019-04-23T10:41:46.336Z,38.89
2019-04-23T10:44:35.528Z,39.15
2019-04-23T10:47:59.430Z,38.85
2019-04-23T10:50:51.185Z,37.73
2019-04-23T10:53:29.687Z,37.11
2019-04-23T10:56:18.369Z,37.60
2019-04-23T10:58:35.185Z,37.27
2019-04-23T11:01:19.341Z,36.61
2019-04-23T11:03:49.254Z,37.07
2019-04-23T11:06:17.731Z,37.57
2019-04-23T11:08:53.448Z,37.95
2019-04-23T11:11:25.548Z,38.24
2019-04-23T11:14:00.137Z,36.57
2019-04-23T11:19:11.294Z,37.18
2019-04-23T11:24:23.663Z,37.02
2019-04-23T11:26:42.390Z,38.52
2019-04-23T11:29:23.781Z,37.54
2019-04-23T11:34:34.181Z,37.09
2019-04-23T11:39:32.533Z,37.21
2019-04-23T11:47:09.503Z,37.26
2019-04-23T11:49:53.719Z,36.85
2019-04-23T11:50:46.443Z,38.53
2019-04-23T11:52:07.797Z,37.12
2019-04-23T11:54:35.540Z,37.03
2019-04-23T11:59:43.605Z,37.61
2019-04-23T12:02:40.284Z,36.92
2019-04-23T12:05:35.449Z,36.74
2019-04-23T12:14:10.463Z,36.20
2019-04-23T12:16:38.447Z,33.62
2019-04-23T12:19:32.873Z,33.59
2019-04-23T12:21:45.424Z,34.76
2019-04-23T12:26:53.881Z,34.25
2019-04-23T12:29:30.402Z,35.38
2019-04-23T12:32:32.356Z,36.74
2019-04-23T12:34:52.922Z,35.32
2019-04-23T12:37:29.300Z,35.89
2019-04-23T12:40:03.211Z,35.55
2019-04-23T12:45:09.595Z,35.65
2019-04-23T12:47:46.351Z,34.83
2019-04-23T12:50:31.042Z,34.58
2019-04-23T12:57:42.441Z,36.04
2019-04-23T13:00:19.574Z,34.50
2019-04-23T13:02:55.539Z,34.87
2019-04-23T13:05:15.827Z,35.55
2019-04-23T13:07:52.046Z,35.03
2019-04-23T13:10:30.270Z,35.39
2019-04-23T13:15:33.425Z,35.70
2019-04-23T13:18:03.016Z,35.46
2019-04-23T13:20:33.877Z,35.29
2019-04-23T13:23:19.816Z,35.32
2019-04-23T13:28:28.069Z,33.14
2019-04-23T13:38:38.270Z,32.57
2019-04-23T13:43:40.541Z,31.68
2019-04-23T13:46:13.848Z,31.83
2019-04-23T13:48:52.509Z,32.31
2019-04-23T13:51:20.814Z,31.22
2019-04-23T13:53:53.383Z,31.17
2019-04-23T13:56:31.587Z,30.99
2019-04-23T13:58:59.920Z,31.39
2019-04-23T14:01:28.864Z,32.01
2019-04-23T14:04:04.745Z,30.14
2019-04-23T14:06:36.478Z,30.62
2019-04-23T14:09:14.628Z,31.29
2019-04-23T14:11:34.698Z,31.01
2019-04-23T14:14:25.257Z,30.78
2019-04-23T14:19:21.459Z,30.28
2019-04-23T14:22:13.723Z,30.27
2019-04-23T14:24:32.374Z,29.98
2019-04-23T14:26:59.187Z,30.37
2019-04-23T14:29:38.463Z,30.41
2019-04-23T14:32:10.489Z,31.00
2019-04-23T14:34:46.321Z,31.03
2019-04-23T14:37:12.133Z,30.67
2019-04-23T14:42:26.516Z,32.10
2019-04-23T14:45:08.089Z,31.95
2019-04-23T14:50:24.060Z,31.72
2019-04-23T14:52:50.382Z,31.26
2019-04-23T14:55:41.775Z,31.14
2019-04-23T14:57:52.795Z,31.71
2019-04-23T15:00:18.604Z,31.92
2019-04-23T15:02:52.108Z,32.29
2019-04-23T15:05:27.988Z,33.79
2019-04-23T15:07:52.144Z,32.41
2019-04-23T15:13:00.015Z,32.26
2019-04-23T15:15:35.630Z,32.61
2019-04-23T15:18:14.175Z,32.25
2019-04-23T15:21:15.748Z,31.11
2019-04-23T15:23:41.802Z,30.74
2019-04-23T15:26:57.177Z,30.62
2019-04-23T15:28:09.029Z,30.47
2019-04-23T15:31:09.598Z,30.43
2019-04-23T15:33:51.870Z,29.68
2019-04-23T15:41:24.971Z,30.41
2019-04-23T15:43:57.766Z,30.74
2019-04-23T15:46:26.800Z,31.13
2019-04-23T15:49:07.688Z,31.25
2019-04-23T15:54:02.580Z,31.78
2019-04-23T15:56:45.189Z,31.88
2019-04-23T16:03:45.059Z,32.30
2019-04-23T16:06:21.459Z,32.23
2019-04-23T16:17:04.921Z,31.86
2019-04-23T16:19:29.125Z,32.15
2019-04-23T16:22:12.995Z,32.02
2019-04-23T16:24:37.804Z,32.61
2019-04-23T16:27:11.093Z,32.53
2019-04-23T16:30:10.793Z,32.75
2019-04-23T16:32:31.356Z,32.81
2019-04-23T16:35:03.261Z,33.03
2019-04-23T16:37:29.297Z,32.88
2019-04-23T16:40:04.507Z,33.37
2019-04-23T16:42:38.392Z,33.66
2019-04-23T16:47:36.884Z,34.01
2019-04-23T16:50:13.128Z,33.91
2019-04-23T16:52:43.898Z,34.22
2019-04-23T16:55:29.450Z,34.60
2019-04-23T17:02:56.071Z,35.67
2019-04-23T17:05:24.924Z,36.00
2019-04-23T17:08:24.847Z,35.93
2019-04-23T17:10:38.816Z,35.95
2019-04-23T17:13:05.058Z,35.88
2019-04-23T17:15:46.413Z,35.88
2019-04-23T17:18:11.950Z,36.30
2019-04-23T17:20:46.779Z,36.51
2019-04-23T17:23:25.567Z,37.12
2019-04-23T17:25:51.875Z,37.34
2019-04-23T17:28:21.973Z,37.44
2019-04-23T17:31:19.245Z,37.53
2019-04-23T17:33:38.301Z,37.38
2019-04-23T17:36:28.391Z,37.08
2019-04-23T17:42:08.283Z,36.88
2019-04-23T17:47:14.061Z,36.79
2019-04-23T17:49:51.085Z,36.90
2019-04-23T17:52:21.896Z,37.03
2019-04-23T17:57:26.317Z,37.29
2019-04-23T18:00:11.469Z,37.90
2019-04-23T18:02:55.605Z,38.20
2019-04-23T18:05:08.214Z,38.06
2019-04-23T18:07:44.000Z,38.25
2019-04-23T18:10:17.556Z,37.35
2019-04-23T18:15:35.123Z,38.00
2019-04-23T18:17:54.747Z,38.50
2019-04-23T18:20:44.167Z,38.54
2019-04-23T18:23:15.164Z,38.86
2019-04-23T18:26:05.419Z,38.66
2019-04-23T18:28:37.635Z,38.94
2019-04-23T18:36:37.144Z,40.13
2019-04-23T18:39:26.314Z,40.41
2019-04-23T18:41:57.941Z,40.34
2019-04-23T18:44:31.830Z,41.13
2019-04-23T18:47:00.429Z,41.34
2019-04-23T18:49:36.638Z,41.10
2019-04-23T18:51:58.218Z,41.61
2019-04-23T18:54:28.418Z,40.28
2019-04-23T18:57:09.841Z,41.19
2019-04-23T19:00:07.480Z,43.00
2019-04-23T19:02:35.436Z,43.41
2019-04-23T19:05:07.233Z,44.51
2019-04-23T19:10:30.487Z,46.62
2019-04-23T19:13:12.628Z,47.13
2019-04-23T19:15:45.905Z,47.63
2019-04-23T19:18:12.552Z,47.39
2019-04-23T19:23:35.192Z,47.75
2019-04-23T19:25:48.270Z,48.13
2019-04-23T19:31:31.365Z,48.36
2019-04-23T19:41:55.422Z,47.95
2019-04-23T19:44:27.901Z,47.80
2019-04-23T19:49:28.850Z,48.20
2019-04-23T19:51:58.514Z,48.77
2019-04-23T19:54:34.008Z,47.91
2019-04-23T20:02:09.579Z,47.46
2019-04-23T20:14:48.810Z,46.37
2019-04-23T20:19:48.215Z,48.04
2019-04-23T20:25:10.012Z,48.23
2019-04-23T20:27:25.967Z,48.01
2019-04-23T20:30:51.004Z,48.98
2019-04-23T20:33:27.924Z,49.66
2019-04-23T20:35:24.246Z,50.62
2019-04-23T20:43:05.713Z,49.56
2019-04-23T20:45:39.628Z,50.32
2019-04-23T20:48:04.796Z,50.69
2019-04-23T20:50:41.028Z,51.29
2019-04-23T20:53:09.234Z,52.06
2019-04-23T20:56:04.877Z,52.66
2019-04-23T21:03:49.140Z,53.35
2019-04-23T21:06:18.882Z,53.40
2019-04-23T21:09:14.909Z,53.76
2019-04-23T21:11:29.073Z,54.18
2019-04-23T21:14:12.459Z,53.97
2019-04-23T21:16:32.763Z,54.03
2019-04-23T21:18:55.606Z,54.49
2019-04-23T21:21:33.832Z,55.00
2019-04-23T21:24:01.325Z,55.43
2019-04-23T21:26:46.057Z,55.71
2019-04-23T21:29:07.443Z,55.62
2019-04-23T21:32:09.314Z,55.88
2019-04-23T21:34:21.572Z,55.35
2019-04-23T21:36:50.942Z,56.01
2019-04-23T21:39:40.757Z,56.17
2019-04-23T21:42:14.089Z,56.44
2019-04-23T21:44:41.974Z,56.88
2019-04-23T21:47:40.294Z,56.27
2019-04-23T21:50:03.159Z,56.00
2019-04-23T21:52:17.944Z,56.28
2019-04-23T21:54:58.760Z,55.19
2019-04-23T21:57:24.468Z,55.31
2019-04-23T21:59:55.818Z,55.90
2019-04-23T22:02:28.587Z,55.95
2019-04-23T22:05:01.191Z,56.05
2019-04-23T22:07:50.131Z,56.09
2019-04-23T22:10:15.718Z,56.66
2019-04-23T22:12:46.809Z,57.10
2019-04-23T22:15:04.756Z,56.93
2019-04-23T22:17:46.289Z,57.35
2019-04-23T22:20:17.690Z,56.57
2019-04-23T22:22:57.197Z,56.21
2019-04-23T22:25:13.123Z,56.18
2019-04-23T22:27:54.783Z,55.70
2019-04-23T22:30:31.468Z,55.62
2019-04-23T22:33:04.024Z,55.88
2019-04-23T22:35:30.501Z,55.75
2019-04-23T22:38:18.783Z,55.89
2019-04-23T22:40:37.406Z,55.58
2019-04-23T22:43:14.737Z,55.56
2019-04-23T22:45:44.427Z,55.95
2019-04-23T22:48:18.020Z,56.05
2019-04-23T22:50:59.344Z,56.03
2019-04-23T22:55:57.675Z,55.88
2019-04-23T22:58:27.640Z,54.96
2019-04-23T23:03:51.182Z,54.60
2019-04-23T23:06:23.085Z,55.06
2019-04-23T23:08:59.879Z,55.43
2019-04-23T23:11:14.146Z,55.28
2019-04-23T23:14:09.663Z,56.25
2019-04-23T23:16:28.382Z,54.64
2019-04-23T23:19:03.957Z,53.93
2019-04-23T23:21:38.143Z,53.27
2019-04-23T23:26:42.185Z,53.71
2019-04-23T23:29:06.358Z,54.14
2019-04-23T23:31:43.929Z,53.07
2019-04-23T23:39:25.056Z,54.64
2019-04-23T23:44:54.542Z,54.23
2019-04-23T23:47:03.102Z,54.41
2019-04-23T23:49:27.819Z,54.80
2019-04-23T23:51:58.295Z,54.30
2019-04-23T23:54:26.618Z,54.97
